Time;durP1;ratioP1;P1;durP2;ratioP2;P2;SDS_P1;SDS_P2;PMS_P1;PMS_P2;Temp;Humidity;BMP_temperature;BMP_pressure;BME280_temperature;BME280_humidity;BME280_pressure;Samples;Min_cycle;Max_cycle;Signal;HPM_P1;HPM_P2
2023/12/03 00:00:50;;;;;;;40.25;34.55;;;;;;;;;;5056814;28;20212;-80
2023/12/03 00:03:17;;;;;;;37.10;33.25;;;;;;;;;;5056725;28;20204;-81
2023/12/03 00:05:44;;;;;;;42.33;37.40;;;;;;;;;;5056051;28;20196;-81
2023/12/03 00:08:12;;;;;;;47.72;36.92;;;;;;;;;;5056340;28;20281;-80
2023/12/03 00:10:39;;;;;;;35.75;32.05;;;;;;;;;;5056366;28;20212;-81
2023/12/03 00:13:08;;;;;;;33.13;29.08;;;;;;;;;;5056032;28;20369;-81
2023/12/03 00:15:35;;;;;;;44.83;36.90;;;;;;;;;;5055964;28;20235;-81
2023/12/03 00:18:02;;;;;;;46.15;37.33;;;;;;;;;;5056420;28;20235;-80
2023/12/03 00:20:29;;;;;;;39.42;35.05;;;;;;;;;;5056022;28;20273;-81
2023/12/03 00:22:56;;;;;;;37.97;33.95;;;;;;;;;;5055541;28;20200;-80
2023/12/03 00:25:23;;;;;;;40.22;35.83;;;;;;;;;;5055609;28;20250;-81
2023/12/03 00:27:52;;;;;;;42.97;36.50;;;;;;;;;;5056617;28;20236;-81
2023/12/03 00:30:20;;;;;;;42.38;37.47;;;;;;;;;;5056419;28;20221;-81
2023/12/03 00:32:47;;;;;;;52.10;37.78;;;;;;;;;;5055890;28;20670;-81
2023/12/03 00:35:15;;;;;;;51.00;36.55;;;;;;;;;;5055525;28;20242;-81
2023/12/03 00:37:41;;;;;;;41.28;35.42;;;;;;;;;;5056415;28;20235;-80
2023/12/03 00:40:09;;;;;;;39.95;35.65;;;;;;;;;;5056555;28;20200;-80
2023/12/03 00:42:36;;;;;;;47.83;38.90;;;;;;;;;;5056387;28;20208;-81
2023/12/03 00:45:03;;;;;;;37.40;32.33;;;;;;;;;;5055398;28;20237;-81
2023/12/03 00:47:31;;;;;;;47.67;39.92;;;;;;;;;;5056234;28;20235;-82
2023/12/03 00:49:58;;;;;;;44.97;36.35;;;;;;;;;;5056297;28;20204;-81
2023/12/03 00:52:25;;;;;;;48.13;39.65;;;;;;;;;;5055937;28;20224;-81
2023/12/03 00:54:52;;;;;;;42.95;37.13;;;;;;;;;;5055174;28;20192;-80
2023/12/03 00:57:19;;;;;;;42.67;36.63;;;;;;;;;;5055999;28;20228;-80
2023/12/03 00:59:46;;;;;;;46.28;37.45;;;;;;;;;;5056290;28;20208;-80
2023/12/03 01:02:13;;;;;;;49.30;38.90;;;;;;;;;;5055989;28;20207;-80
2023/12/03 01:04:42;;;;;;;44.85;36.33;;;;;;;;;;5054854;28;20281;-81
2023/12/03 01:07:09;;;;;;;44.05;36.55;;;;;;;;;;5055155;28;20614;-81
2023/12/03 01:09:36;;;;;;;48.25;39.35;;;;;;;;;;5055847;28;20725;-81
2023/12/03 01:12:03;;;;;;;48.25;39.25;;;;;;;;;;5055098;28;20227;-80
2023/12/03 01:14:30;;;;;;;41.47;36.97;;;;;;;;;;5054478;28;20326;-80
2023/12/03 01:16:57;;;;;;;39.17;34.65;;;;;;;;;;5055221;28;20712;-81
2023/12/03 01:19:24;;;;;;;43.47;36.28;;;;;;;;;;5055593;28;20208;-81
2023/12/03 01:21:53;;;;;;;44.90;36.95;;;;;;;;;;5054887;28;20207;-81
2023/12/03 01:24:20;;;;;;;39.85;34.20;;;;;;;;;;5055224;28;20598;-80
2023/12/03 01:26:47;;;;;;;48.20;36.67;;;;;;;;;;5054955;28;20232;-81
2023/12/03 01:29:13;;;;;;;48.40;35.35;;;;;;;;;;5055102;28;20204;-80
2023/12/03 01:31:41;;;;;;;44.75;37.85;;;;;;;;;;5055426;28;20236;-81
2023/12/03 01:34:08;;;;;;;43.88;35.50;;;;;;;;;;5054085;28;20299;-80
2023/12/03 01:36:35;;;;;;;46.38;37.85;;;;;;;;;;5054935;28;20766;-80
2023/12/03 01:39:05;;;;;;;48.60;36.13;;;;;;;;;;5055628;28;20262;-81
2023/12/03 01:41:32;;;;;;;39.42;35.33;;;;;;;;;;5055134;28;20196;-81
2023/12/03 01:43:59;;;;;;;44.47;37.33;;;;;;;;;;5054394;28;20211;-81
2023/12/03 01:46:28;;;;;;;47.30;36.88;;;;;;;;;;5054907;28;20224;-81
2023/12/03 01:48:55;;;;;;;45.53;40.25;;;;;;;;;;5055185;28;20200;-81
2023/12/03 01:51:22;;;;;;;44.35;37.63;;;;;;;;;;5054304;28;20204;-80
2023/12/03 01:53:50;;;;;;;45.88;38.15;;;;;;;;;;5055466;28;20200;-82
2023/12/03 01:56:18;;;;;;;50.03;37.85;;;;;;;;;;5055580;28;20230;-81
2023/12/03 01:58:45;;;;;;;47.72;37.85;;;;;;;;;;5055175;28;20208;-81
2023/12/03 02:01:12;;;;;;;45.65;37.28;;;;;;;;;;5055064;28;20254;-81
2023/12/03 02:03:39;;;;;;;51.15;40.00;;;;;;;;;;5054671;28;20204;-81
2023/12/03 02:06:07;;;;;;;49.42;37.80;;;;;;;;;;5054573;28;20667;-81
2023/12/03 02:08:34;;;;;;;57.90;40.95;;;;;;;;;;5054432;28;20219;-80
2023/12/03 02:11:02;;;;;;;43.40;35.75;;;;;;;;;;5054532;28;20261;-81
2023/12/03 02:13:31;;;;;;;48.15;39.30;;;;;;;;;;5054791;28;20234;-80
2023/12/03 02:15:58;;;;;;;49.03;38.08;;;;;;;;;;5054080;28;20212;-81
2023/12/03 02:18:26;;;;;;;48.97;38.35;;;;;;;;;;5054537;28;20266;-81
2023/12/03 02:20:53;;;;;;;54.10;38.42;;;;;;;;;;5054545;28;20200;-81
2023/12/03 02:23:22;;;;;;;45.45;37.72;;;;;;;;;;5054818;28;20664;-81
2023/12/03 02:25:51;;;;;;;48.30;38.47;;;;;;;;;;5053792;28;20261;-81
2023/12/03 02:28:18;;;;;;;47.47;37.00;;;;;;;;;;5054047;28;20307;-81
2023/12/03 02:30:45;;;;;;;55.15;37.90;;;;;;;;;;5054256;28;21058;-81
2023/12/03 02:33:12;;;;;;;51.10;38.67;;;;;;;;;;5054325;28;20843;-81
2023/12/03 02:35:39;;;;;;;50.58;39.83;;;;;;;;;;5054512;28;20281;-80
2023/12/03 02:38:06;;;;;;;52.25;40.13;;;;;;;;;;5054806;28;20221;-81
2023/12/03 02:40:35;;;;;;;46.22;38.00;;;;;;;;;;5054514;28;20204;-81
2023/12/03 02:43:02;;;;;;;45.42;36.92;;;;;;;;;;5055102;28;20216;-80
2023/12/03 02:45:29;;;;;;;48.25;38.63;;;;;;;;;;5057548;28;20222;-80
2023/12/03 02:47:56;;;;;;;45.35;39.33;;;;;;;;;;5078481;28;20231;-81
2023/12/03 02:50:23;;;;;;;49.65;38.85;;;;;;;;;;5078787;28;20199;-82
2023/12/03 02:52:50;;;;;;;49.72;38.13;;;;;;;;;;5078000;28;20702;-80
2023/12/03 02:55:17;;;;;;;46.97;38.10;;;;;;;;;;5076785;28;20203;-80
2023/12/03 02:57:45;;;;;;;50.15;39.63;;;;;;;;;;5077879;28;20280;-80
2023/12/03 03:00:12;;;;;;;49.22;39.70;;;;;;;;;;5077481;28;20280;-80
2023/12/03 03:02:39;;;;;;;43.75;36.75;;;;;;;;;;5077595;28;20887;-80
2023/12/03 03:05:07;;;;;;;47.17;38.65;;;;;;;;;;5076763;28;20250;-80
2023/12/03 03:07:34;;;;;;;46.72;37.40;;;;;;;;;;5078001;28;20288;-80
2023/12/03 03:10:01;;;;;;;49.88;40.20;;;;;;;;;;5077819;28;20677;-80
2023/12/03 03:12:28;;;;;;;53.33;38.72;;;;;;;;;;5077794;28;20223;-80
2023/12/03 03:14:56;;;;;;;48.28;38.10;;;;;;;;;;5076868;28;20296;-80
2023/12/03 03:17:23;;;;;;;49.70;39.05;;;;;;;;;;5077480;28;20235;-80
2023/12/03 03:19:50;;;;;;;46.60;37.22;;;;;;;;;;5077343;28;20276;-80
2023/12/03 03:22:17;;;;;;;50.03;37.42;;;;;;;;;;5077768;28;20200;-80
2023/12/03 03:24:44;;;;;;;42.85;35.25;;;;;;;;;;5077049;28;20212;-81
2023/12/03 03:27:11;;;;;;;54.85;39.40;;;;;;;;;;5077621;28;20231;-80
2023/12/03 03:29:38;;;;;;;45.90;36.63;;;;;;;;;;5077227;28;20269;-80
2023/12/03 03:32:07;;;;;;;47.60;39.80;;;;;;;;;;5077298;28;20199;-80
2023/12/03 03:34:34;;;;;;;42.63;37.45;;;;;;;;;;5076350;28;20207;-80
2023/12/03 03:37:01;;;;;;;40.53;36.22;;;;;;;;;;5076820;28;20273;-80
2023/12/03 03:39:28;;;;;;;49.55;40.83;;;;;;;;;;5076535;28;20257;-80
2023/12/03 03:41:55;;;;;;;49.72;38.67;;;;;;;;;;5076828;28;20207;-80
2023/12/03 03:44:22;;;;;;;51.28;38.00;;;;;;;;;;5075446;28;20239;-80
2023/12/03 03:46:49;;;;;;;45.60;38.08;;;;;;;;;;5076641;28;20646;-81
2023/12/03 03:49:18;;;;;;;45.38;38.58;;;;;;;;;;5076847;28;20549;-80
2023/12/03 03:51:45;;;;;;;51.10;38.80;;;;;;;;;;5076647;28;20211;-80
2023/12/03 03:54:12;;;;;;;47.60;36.35;;;;;;;;;;5075483;28;20273;-80
2023/12/03 03:56:39;;;;;;;43.25;35.53;;;;;;;;;;5076266;28;20711;-80
2023/12/03 03:59:06;;;;;;;50.15;38.20;;;;;;;;;;5077344;28;20203;-80
2023/12/03 04:01:33;;;;;;;40.35;34.70;;;;;;;;;;5076409;28;20219;-80
2023/12/03 04:04:00;;;;;;;46.72;37.55;;;;;;;;;;5076213;28;20203;-80
2023/12/03 04:06:28;;;;;;;52.58;37.45;;;;;;;;;;5076188;28;20284;-80
2023/12/03 04:08:54;;;;;;;43.60;36.88;;;;;;;;;;5076361;28;20244;-80
2023/12/03 04:11:21;;;;;;;41.72;36.95;;;;;;;;;;5075896;28;20562;-80
2023/12/03 04:13:48;;;;;;;44.53;37.00;;;;;;;;;;5075577;28;20223;-81
2023/12/03 04:16:23;;;;;;;45.08;36.63;;;;;;;;;;5076021;28;20196;-81
2023/12/03 04:18:50;;;;;;;49.85;36.90;;;;;;;;;;5076235;28;20264;-80
2023/12/03 04:21:17;;;;;;;46.92;36.70;;;;;;;;;;5076305;28;20208;-80
2023/12/03 04:23:46;;;;;;;42.70;34.88;;;;;;;;;;5076342;28;20953;-82
2023/12/03 04:26:14;;;;;;;49.08;37.80;;;;;;;;;;5075657;28;20280;-80
2023/12/03 04:28:41;;;;;;;51.35;38.53;;;;;;;;;;5075900;28;20272;-80
2023/12/03 04:31:16;;;;;;;48.60;38.88;;;;;;;;;;5076605;28;20211;-82
2023/12/03 04:33:43;;;;;;;45.10;37.83;;;;;;;;;;5076011;28;20580;-80
2023/12/03 04:36:11;;;;;;;44.85;38.83;;;;;;;;;;5075851;28;20253;-80
2023/12/03 04:38:38;;;;;;;50.42;38.03;;;;;;;;;;5076234;28;20207;-80
2023/12/03 04:41:07;;;;;;;42.25;35.75;;;;;;;;;;5075456;28;20764;-80
2023/12/03 04:43:37;;;;;;;46.33;39.78;;;;;;;;;;5075408;28;20208;-80
2023/12/03 04:46:04;;;;;;;40.03;35.75;;;;;;;;;;5075413;28;20235;-81
2023/12/03 04:48:31;;;;;;;40.90;36.03;;;;;;;;;;5075960;28;20261;-80
2023/12/03 04:50:59;;;;;;;47.25;37.70;;;;;;;;;;5075850;28;20551;-80
2023/12/03 04:53:26;;;;;;;45.58;37.90;;;;;;;;;;5075487;28;20235;-80
2023/12/03 04:55:53;;;;;;;48.97;40.28;;;;;;;;;;5074860;28;20658;-81
2023/12/03 04:58:22;;;;;;;32.75;29.15;;;;;;;;;;5075688;28;20227;-80
2023/12/03 05:00:49;;;;;;;38.95;32.10;;;;;;;;;;5075310;28;20237;-80
2023/12/03 05:03:16;;;;;;;33.83;30.40;;;;;;;;;;5076070;28;20199;-80
2023/12/03 05:05:43;;;;;;;47.83;37.67;;;;;;;;;;5075016;28;20211;-80
2023/12/03 05:08:10;;;;;;;42.63;36.28;;;;;;;;;;5075080;28;20250;-81
2023/12/03 05:10:37;;;;;;;43.85;36.85;;;;;;;;;;5074973;28;20663;-81
2023/12/03 05:13:04;;;;;;;32.15;28.25;;;;;;;;;;5074665;28;20285;-80
2023/12/03 05:15:33;;;;;;;34.88;31.30;;;;;;;;;;5075022;28;20253;-80
2023/12/03 05:18:00;;;;;;;41.30;35.97;;;;;;;;;;5075109;28;20247;-80
2023/12/03 05:20:27;;;;;;;47.00;37.00;;;;;;;;;;5075440;28;20199;-80
2023/12/03 05:22:54;;;;;;;47.08;40.80;;;;;;;;;;5075042;28;20207;-80
2023/12/03 05:25:21;;;;;;;38.53;31.50;;;;;;;;;;5075059;28;20234;-80
2023/12/03 05:27:48;;;;;;;51.80;39.75;;;;;;;;;;5075041;28;20216;-80
2023/12/03 05:30:16;;;;;;;53.38;38.38;;;;;;;;;;5075740;28;20280;-80
2023/12/03 05:32:44;;;;;;;45.10;34.60;;;;;;;;;;5074927;28;20687;-80
2023/12/03 05:35:11;;;;;;;51.10;40.50;;;;;;;;;;5074352;28;20694;-80
2023/12/03 05:37:39;;;;;;;42.30;34.33;;;;;;;;;;5074857;28;20226;-80
2023/12/03 05:40:08;;;;;;;58.03;43.65;;;;;;;;;;5074484;28;20211;-80
2023/12/03 05:42:35;;;;;;;51.30;37.80;;;;;;;;;;5074165;28;20576;-80
2023/12/03 05:45:03;;;;;;;43.80;36.15;;;;;;;;;;5074300;28;20253;-80
2023/12/03 05:47:30;;;;;;;55.20;40.70;;;;;;;;;;5074780;28;20223;-80
2023/12/03 05:49:58;;;;;;;53.08;41.40;;;;;;;;;;5075060;28;20205;-80
2023/12/03 05:52:25;;;;;;;41.80;35.35;;;;;;;;;;5074880;28;20208;-80
2023/12/03 05:54:52;;;;;;;50.80;37.75;;;;;;;;;;5073688;28;20227;-80
2023/12/03 05:57:19;;;;;;;50.13;38.35;;;;;;;;;;5074078;28;20249;-80
2023/12/03 05:59:46;;;;;;;44.45;37.00;;;;;;;;;;5073832;28;20239;-79
2023/12/03 06:02:14;;;;;;;51.92;39.67;;;;;;;;;;5075074;28;20305;-80
2023/12/03 06:04:41;;;;;;;42.22;32.17;;;;;;;;;;5074058;28;20207;-80
2023/12/03 06:07:09;;;;;;;58.10;39.90;;;;;;;;;;5074212;28;20277;-81
2023/12/03 06:09:36;;;;;;;48.58;37.72;;;;;;;;;;5074331;28;20207;-80
2023/12/03 06:12:04;;;;;;;44.72;34.72;;;;;;;;;;5074469;28;20292;-79
2023/12/03 06:14:31;;;;;;;33.47;29.65;;;;;;;;;;5073376;28;20265;-80
2023/12/03 06:16:58;;;;;;;36.88;31.10;;;;;;;;;;5074477;28;20237;-79
2023/12/03 06:19:26;;;;;;;38.42;30.73;;;;;;;;;;5074448;28;20210;-81
2023/12/03 06:21:53;;;;;;;46.33;35.75;;;;;;;;;;5077608;28;20224;-79
2023/12/03 06:24:21;;;;;;;45.10;32.92;;;;;;;;;;5078478;28;20203;-79
2023/12/03 06:26:48;;;;;;;49.17;35.00;;;;;;;;;;5078631;28;20576;-80
2023/12/03 06:29:15;;;;;;;33.90;30.13;;;;;;;;;;5078478;28;20904;-80
2023/12/03 06:31:42;;;;;;;45.78;35.63;;;;;;;;;;5078750;28;20256;-80
2023/12/03 06:34:09;;;;;;;45.45;33.70;;;;;;;;;;5077522;28;20211;-80
2023/12/03 06:36:36;;;;;;;47.83;38.33;;;;;;;;;;5077465;28;20703;-80
2023/12/03 06:39:04;;;;;;;48.78;39.63;;;;;;;;;;5078592;28;20603;-80
2023/12/03 06:41:32;;;;;;;51.28;36.92;;;;;;;;;;5067351;28;20208;-80
2023/12/03 06:43:59;;;;;;;48.10;35.75;;;;;;;;;;5057629;28;20252;-79
2023/12/03 06:46:26;;;;;;;43.90;34.03;;;;;;;;;;5058073;28;20274;-80
2023/12/03 06:48:53;;;;;;;41.75;33.70;;;;;;;;;;5058042;28;20610;-80
2023/12/03 06:51:20;;;;;;;37.97;31.42;;;;;;;;;;5057929;28;20262;-79
2023/12/03 06:53:47;;;;;;;42.47;34.03;;;;;;;;;;5057326;28;20721;-80
2023/12/03 06:56:14;;;;;;;47.80;34.22;;;;;;;;;;5057900;28;20212;-80
2023/12/03 06:58:42;;;;;;;51.15;37.28;;;;;;;;;;5058258;28;20208;-80
2023/12/03 07:01:09;;;;;;;42.55;35.38;;;;;;;;;;5060819;28;20249;-80
2023/12/03 07:03:36;;;;;;;52.22;35.30;;;;;;;;;;5078620;28;20207;-80
2023/12/03 07:06:04;;;;;;;56.80;38.90;;;;;;;;;;5076667;28;20289;-80
2023/12/03 07:08:31;;;;;;;52.63;38.03;;;;;;;;;;5077530;28;20207;-80
2023/12/03 07:10:58;;;;;;;64.07;43.75;;;;;;;;;;5077656;28;20249;-79
2023/12/03 07:13:26;;;;;;;56.03;44.55;;;;;;;;;;5076937;28;20243;-80
2023/12/03 07:15:54;;;;;;;106.03;78.85;;;;;;;;;;5076066;28;20279;-80
2023/12/03 07:18:21;;;;;;;128.13;104.68;;;;;;;;;;5076621;28;20715;-80
2023/12/03 07:20:48;;;;;;;177.32;158.23;;;;;;;;;;5076175;28;20294;-80
2023/12/03 07:23:15;;;;;;;57.47;47.15;;;;;;;;;;5076184;28;20204;-80
2023/12/03 07:25:42;;;;;;;66.22;42.13;;;;;;;;;;5076060;28;20792;-80
2023/12/03 07:28:09;;;;;;;60.97;42.58;;;;;;;;;;5075808;28;20277;-80
2023/12/03 07:30:37;;;;;;;59.03;39.13;;;;;;;;;;5068427;28;20305;-79
2023/12/03 07:33:05;;;;;;;61.05;41.78;;;;;;;;;;5052472;28;20208;-77
2023/12/03 07:35:32;;;;;;;54.65;39.05;;;;;;;;;;5052122;28;20228;-77
2023/12/03 07:37:59;;;;;;;62.35;41.75;;;;;;;;;;5052744;28;20250;-76
2023/12/03 07:40:26;;;;;;;44.08;36.10;;;;;;;;;;5053067;28;20216;-76
2023/12/03 07:42:53;;;;;;;53.33;38.05;;;;;;;;;;5052985;28;20200;-76
2023/12/03 07:45:20;;;;;;;67.40;38.67;;;;;;;;;;5052153;28;20234;-76
2023/12/03 07:47:47;;;;;;;67.28;40.35;;;;;;;;;;5052340;28;20766;-76
2023/12/03 07:50:16;;;;;;;59.90;38.83;;;;;;;;;;5052841;28;20227;-76
2023/12/03 07:52:43;;;;;;;53.80;38.75;;;;;;;;;;5052606;28;20212;-76
2023/12/03 07:55:11;;;;;;;58.25;40.45;;;;;;;;;;5051600;28;20647;-76
2023/12/03 07:57:38;;;;;;;58.40;40.53;;;;;;;;;;5051392;28;20290;-76
2023/12/03 08:00:06;;;;;;;56.08;40.70;;;;;;;;;;5052173;28;20286;-76
2023/12/03 08:02:33;;;;;;;76.13;45.90;;;;;;;;;;5052170;28;20208;-76
2023/12/03 08:05:00;;;;;;;57.58;40.95;;;;;;;;;;5051119;28;20249;-76
2023/12/03 08:07:28;;;;;;;74.57;43.22;;;;;;;;;;5051473;28;20227;-77
2023/12/03 08:09:55;;;;;;;53.30;40.25;;;;;;;;;;5051439;28;20238;-76
2023/12/03 08:12:22;;;;;;;56.53;41.45;;;;;;;;;;5051940;28;20672;-77
2023/12/03 08:14:49;;;;;;;80.10;45.10;;;;;;;;;;5017431;28;1001958;-76
2023/12/03 08:17:16;;;;;;;62.58;40.50;;;;;;;;;;5052928;28;20593;-76
2023/12/03 08:19:43;;;;;;;68.10;41.88;;;;;;;;;;5052905;28;20938;-76
2023/12/03 08:22:10;;;;;;;76.72;43.53;;;;;;;;;;5053150;28;20299;-76
2023/12/03 08:24:39;;;;;;;66.80;43.47;;;;;;;;;;5059837;28;20716;-76
2023/12/03 08:27:06;;;;;;;68.40;40.90;;;;;;;;;;5052396;28;20751;-76
2023/12/03 08:29:33;;;;;;;52.28;40.70;;;;;;;;;;5052906;28;20901;-74
2023/12/03 08:32:00;;;;;;;81.30;46.28;;;;;;;;;;5052587;28;20208;-76
2023/12/03 08:34:28;;;;;;;63.85;43.35;;;;;;;;;;5051080;28;20573;-76
2023/12/03 08:36:55;;;;;;;74.47;45.58;;;;;;;;;;5052450;28;20240;-76
2023/12/03 08:39:22;;;;;;;90.40;48.10;;;;;;;;;;5052298;28;20253;-76
2023/12/03 08:41:50;;;;;;;64.00;44.65;;;;;;;;;;5052269;28;20743;-76
2023/12/03 08:44:17;;;;;;;66.50;49.58;;;;;;;;;;5052041;28;20725;-75
2023/12/03 08:46:45;;;;;;;77.00;49.65;;;;;;;;;;5072486;28;20231;-76
2023/12/03 08:49:12;;;;;;;78.20;46.30;;;;;;;;;;5072716;28;20220;-75
2023/12/03 08:51:39;;;;;;;80.90;45.50;;;;;;;;;;5074786;28;20211;-79
2023/12/03 08:54:06;;;;;;;81.95;48.83;;;;;;;;;;5076839;28;20223;-80
2023/12/03 08:56:33;;;;;;;76.82;48.60;;;;;;;;;;5080580;28;20999;-80
2023/12/03 08:59:02;;;;;;;76.63;48.60;;;;;;;;;;5080838;28;20213;-80
2023/12/03 09:01:28;;;;;;;75.25;48.13;;;;;;;;;;5080172;28;20218;-81
2023/12/03 09:03:56;;;;;;;99.15;51.22;;;;;;;;;;5080629;28;20238;-80
2023/12/03 09:06:23;;;;;;;83.90;49.75;;;;;;;;;;5080912;28;20318;-80
2023/12/03 09:08:50;;;;;;;79.28;48.63;;;;;;;;;;5080589;28;20206;-80
2023/12/03 09:11:17;;;;;;;85.82;50.70;;;;;;;;;;5079142;28;20214;-78
2023/12/03 09:13:44;;;;;;;74.55;48.13;;;;;;;;;;5078846;28;20570;-81
2023/12/03 09:16:13;;;;;;;93.50;49.63;;;;;;;;;;5078993;28;20196;-80
2023/12/03 09:18:40;;;;;;;91.65;52.47;;;;;;;;;;5079323;28;20277;-79
2023/12/03 09:21:08;;;;;;;87.95;51.55;;;;;;;;;;5080502;28;20230;-80
2023/12/03 09:23:35;;;;;;;87.90;50.80;;;;;;;;;;5079437;28;20210;-80
2023/12/03 09:26:02;;;;;;;79.30;48.92;;;;;;;;;;5078265;28;20211;-81
2023/12/03 09:28:32;;;;;;;79.05;47.53;;;;;;;;;;5072847;28;20203;-77
2023/12/03 09:30:59;;;;;;;86.90;47.00;;;;;;;;;;5063685;28;20216;-76
2023/12/03 09:33:28;;;;;;;89.50;52.35;;;;;;;;;;5051668;28;20200;-76
2023/12/03 09:35:56;;;;;;;78.47;49.80;;;;;;;;;;5067816;28;20227;-76
2023/12/03 09:38:23;;;;;;;85.60;49.83;;;;;;;;;;5071923;28;20586;-76
2023/12/03 09:40:50;;;;;;;80.57;51.88;;;;;;;;;;5071523;28;20203;-76
2023/12/03 09:43:19;;;;;;;79.90;49.33;;;;;;;;;;5071621;28;20211;-76
2023/12/03 09:45:47;;;;;;;77.53;49.30;;;;;;;;;;5070829;28;20214;-77
2023/12/03 09:48:14;;;;;;;82.20;50.38;;;;;;;;;;5056174;28;21017;-76
2023/12/03 09:50:45;;;;;;;76.35;47.33;;;;;;;;;;5051886;28;20270;-77
2023/12/03 09:53:13;;;;;;;89.15;48.15;;;;;;;;;;5062925;28;20656;-77
2023/12/03 09:55:41;;;;;;;89.32;49.42;;;;;;;;;;5075972;28;20722;-79
2023/12/03 09:58:10;;;;;;;75.53;49.45;;;;;;;;;;5071271;28;20288;-79
2023/12/03 10:00:39;;;;;;;82.00;51.15;;;;;;;;;;5086618;28;20226;-81
2023/12/03 10:03:08;;;;;;;85.35;49.15;;;;;;;;;;5089439;28;20230;-80
2023/12/03 10:05:35;;;;;;;70.60;49.15;;;;;;;;;;5087484;28;20204;-79
2023/12/03 10:08:04;;;;;;;80.70;50.03;;;;;;;;;;5086572;28;20272;-79
2023/12/03 10:10:31;;;;;;;81.40;50.85;;;;;;;;;;5086318;28;20584;-80
2023/12/03 10:12:59;;;;;;;80.50;51.63;;;;;;;;;;5081319;28;20279;-78
2023/12/03 10:15:26;;;;;;;86.40;52.40;;;;;;;;;;5079646;28;20222;-77
2023/12/03 10:17:53;;;;;;;71.30;47.63;;;;;;;;;;5080676;28;20231;-77
2023/12/03 10:20:27;;;;;;;78.47;51.60;;;;;;;;;;5080017;28;20269;-76
2023/12/03 10:22:55;;;;;;;78.97;49.63;;;;;;;;;;5077539;28;20210;-76
2023/12/03 10:25:30;;;;;;;82.40;49.90;;;;;;;;;;5076140;28;20203;-76
2023/12/03 10:27:58;;;;;;;84.07;50.35;;;;;;;;;;5076615;28;20313;-77
2023/12/03 10:30:25;;;;;;;79.25;51.88;;;;;;;;;;5071952;28;20220;-77
2023/12/03 10:32:52;;;;;;;76.13;50.83;;;;;;;;;;5067224;28;20287;-77
2023/12/03 10:35:21;;;;;;;85.57;53.35;;;;;;;;;;5055901;28;20311;-76
2023/12/03 10:37:48;;;;;;;87.03;52.50;;;;;;;;;;5056570;28;20277;-77
2023/12/03 10:40:15;;;;;;;83.53;54.42;;;;;;;;;;5064770;28;20213;-76
2023/12/03 10:42:44;;;;;;;96.35;57.28;;;;;;;;;;5055461;28;20216;-76
2023/12/03 10:45:12;;;;;;;91.53;53.28;;;;;;;;;;5053754;28;20242;-77
2023/12/03 10:47:39;;;;;;;90.78;54.60;;;;;;;;;;5054893;28;20258;-77
2023/12/03 10:50:07;;;;;;;90.10;55.90;;;;;;;;;;5054620;28;20204;-77
2023/12/03 10:52:35;;;;;;;72.20;49.78;;;;;;;;;;5054308;28;20210;-77
2023/12/03 10:55:02;;;;;;;78.72;49.15;;;;;;;;;;5054482;28;20224;-77
2023/12/03 10:57:29;;;;;;;71.72;47.47;;;;;;;;;;5054540;28;20224;-77
2023/12/03 11:00:02;;;;;;;82.13;51.47;;;;;;;;;;5063283;28;20237;-78
2023/12/03 11:02:31;;;;;;;83.60;56.90;;;;;;;;;;5061513;28;20303;-78
2023/12/03 11:05:00;;;;;;;67.75;50.38;;;;;;;;;;5054603;28;20208;-76
2023/12/03 11:07:30;;;;;;;61.67;48.83;;;;;;;;;;5065689;28;20228;-77
2023/12/03 11:09:57;;;;;;;69.43;47.63;;;;;;;;;;5068898;28;20226;-77
2023/12/03 11:12:25;;;;;;;59.78;42.35;;;;;;;;;;5077380;28;20191;-77
2023/12/03 11:14:53;;;;;;;60.88;45.10;;;;;;;;;;5061801;28;20220;-76
2023/12/03 11:17:27;;;;;;;62.83;44.13;;;;;;;;;;5058164;28;20282;-78
2023/12/03 11:19:56;;;;;;;58.53;43.95;;;;;;;;;;5056791;28;20269;-76
2023/12/03 11:22:30;;;;;;;62.45;46.63;;;;;;;;;;5056286;28;20219;-78
2023/12/03 11:25:00;;;;;;;58.45;42.83;;;;;;;;;;5056056;28;20183;-77
2023/12/03 11:27:27;;;;;;;52.90;41.47;;;;;;;;;;5055949;28;20745;-76
2023/12/03 11:29:55;;;;;;;57.35;39.47;;;;;;;;;;5056513;28;20208;-77
2023/12/03 11:32:25;;;;;;;59.90;41.47;;;;;;;;;;5055771;28;20227;-77
2023/12/03 11:34:56;;;;;;;57.80;38.58;;;;;;;;;;5055436;28;20215;-76
2023/12/03 11:37:24;;;;;;;50.15;38.20;;;;;;;;;;5054973;28;20240;-77
2023/12/03 11:39:51;;;;;;;44.13;36.17;;;;;;;;;;5055653;28;20667;-82
2023/12/03 11:42:18;;;;;;;40.95;36.47;;;;;;;;;;5057333;28;20636;-77
2023/12/03 11:44:45;;;;;;;42.53;35.55;;;;;;;;;;5067424;28;20219;-76
2023/12/03 11:47:15;;;;;;;38.53;34.40;;;;;;;;;;5055248;28;20236;-77
2023/12/03 11:49:43;;;;;;;39.20;34.28;;;;;;;;;;5053803;28;20599;-76
2023/12/03 11:52:14;;;;;;;31.88;28.90;;;;;;;;;;5063668;28;20204;-77
2023/12/03 11:54:47;;;;;;;37.03;33.22;;;;;;;;;;5073878;28;20248;-76
2023/12/03 11:57:14;;;;;;;35.17;31.48;;;;;;;;;;5074936;28;20866;-77
2023/12/03 11:59:42;;;;;;;35.65;31.95;;;;;;;;;;5074378;28;20191;-76
2023/12/03 12:02:09;;;;;;;31.05;28.10;;;;;;;;;;5073846;28;20219;-77
2023/12/03 12:04:36;;;;;;;33.30;30.33;;;;;;;;;;5074468;28;20222;-77
2023/12/03 12:07:14;;;;;;;34.20;30.92;;;;;;;;;;5058487;28;20211;-76
2023/12/03 12:09:42;;;;;;;34.88;31.15;;;;;;;;;;5053590;28;20192;-76
2023/12/03 12:12:09;;;;;;;33.20;29.92;;;;;;;;;;5053236;28;20270;-76
2023/12/03 12:14:36;;;;;;;33.50;30.42;;;;;;;;;;5052487;28;20220;-77
2023/12/03 12:17:03;;;;;;;33.92;30.73;;;;;;;;;;5059132;28;20282;-77
2023/12/03 12:19:30;;;;;;;30.05;27.33;;;;;;;;;;5050968;28;20218;-77
2023/12/03 12:21:58;;;;;;;36.05;32.28;;;;;;;;;;5052741;28;20200;-84
2023/12/03 12:24:26;;;;;;;34.53;31.05;;;;;;;;;;5051910;28;20216;-76
2023/12/03 12:26:54;;;;;;;35.53;31.70;;;;;;;;;;5052897;28;20228;-78
2023/12/03 12:29:22;;;;;;;34.80;31.73;;;;;;;;;;5053073;28;20208;-76
2023/12/03 12:31:49;;;;;;;33.08;30.05;;;;;;;;;;5052733;28;20208;-76
2023/12/03 12:34:17;;;;;;;35.40;32.00;;;;;;;;;;5052543;28;20261;-76
2023/12/03 12:36:44;;;;;;;34.10;30.80;;;;;;;;;;5052771;28;20640;-75
2023/12/03 12:39:25;;;;;;;35.47;31.98;;;;;;;;;;5052810;28;20211;-75
2023/12/03 12:41:53;;;;;;;37.35;30.70;;;;;;;;;;5053153;28;20359;-78
2023/12/03 12:44:21;;;;;;;33.80;30.45;;;;;;;;;;5051794;28;20280;-75
2023/12/03 12:46:54;;;;;;;35.50;31.90;;;;;;;;;;5052531;28;20228;-77
2023/12/03 12:49:21;;;;;;;33.58;30.10;;;;;;;;;;5051149;28;20220;-74
2023/12/03 12:51:48;;;;;;;32.65;29.75;;;;;;;;;;5052664;28;20208;-75
2023/12/03 12:54:15;;;;;;;32.15;29.15;;;;;;;;;;5056766;28;20208;-75
2023/12/03 12:56:44;;;;;;;34.22;30.92;;;;;;;;;;5052082;28;20242;-76
2023/12/03 12:59:14;;;;;;;35.78;32.17;;;;;;;;;;5054110;28;20298;-75
2023/12/03 13:01:43;;;;;;;35.42;32.40;;;;;;;;;;5058744;28;20212;-75
2023/12/03 13:04:10;;;;;;;30.77;27.75;;;;;;;;;;5050800;28;20200;-75
2023/12/03 13:06:37;;;;;;;31.67;28.38;;;;;;;;;;5065934;28;20711;-76
2023/12/03 13:09:04;;;;;;;34.58;31.58;;;;;;;;;;5067754;28;20210;-79
2023/12/03 13:11:31;;;;;;;35.30;31.83;;;;;;;;;;5053762;28;20234;-82
2023/12/03 13:13:58;;;;;;;34.05;30.55;;;;;;;;;;5052751;28;20219;-81
2023/12/03 13:16:27;;;;;;;34.35;31.05;;;;;;;;;;5053865;28;20258;-81
2023/12/03 13:18:54;;;;;;;33.03;30.02;;;;;;;;;;5053954;28;20196;-80
2023/12/03 13:21:21;;;;;;;34.20;31.30;;;;;;;;;;5053864;28;20263;-81
2023/12/03 13:23:48;;;;;;;33.88;30.45;;;;;;;;;;5052588;28;20212;-75
2023/12/03 13:26:15;;;;;;;34.85;30.92;;;;;;;;;;5051398;28;20717;-74
2023/12/03 13:28:43;;;;;;;32.65;29.73;;;;;;;;;;5052334;28;20209;-79
2023/12/03 13:31:10;;;;;;;35.20;31.75;;;;;;;;;;5052989;28;20982;-80
2023/12/03 13:33:38;;;;;;;36.00;32.47;;;;;;;;;;5053154;28;20216;-76
2023/12/03 13:36:06;;;;;;;35.60;31.88;;;;;;;;;;5067353;28;20280;-76
2023/12/03 13:38:33;;;;;;;33.00;29.95;;;;;;;;;;5050181;28;20663;-75
2023/12/03 13:41:00;;;;;;;34.25;30.83;;;;;;;;;;5050781;28;20247;-76
2023/12/03 13:43:28;;;;;;;31.45;28.38;;;;;;;;;;5051415;28;20212;-76
2023/12/03 13:45:55;;;;;;;33.53;30.27;;;;;;;;;;5051288;28;20232;-76
2023/12/03 13:48:22;;;;;;;33.90;30.65;;;;;;;;;;5051008;28;20778;-76
2023/12/03 13:50:50;;;;;;;33.03;30.15;;;;;;;;;;5051205;28;20208;-75
2023/12/03 13:53:17;;;;;;;34.22;30.75;;;;;;;;;;5051262;28;20204;-75
2023/12/03 13:55:44;;;;;;;33.13;30.13;;;;;;;;;;5050716;28;20242;-76
2023/12/03 13:58:11;;;;;;;33.65;30.35;;;;;;;;;;5050807;28;20293;-76
2023/12/03 14:00:39;;;;;;;32.05;29.05;;;;;;;;;;5050878;28;20668;-74
2023/12/03 14:03:06;;;;;;;36.28;32.42;;;;;;;;;;5051028;28;20610;-76
2023/12/03 14:05:33;;;;;;;41.17;37.03;;;;;;;;;;5050730;28;20207;-75
2023/12/03 14:08:01;;;;;;;45.97;41.15;;;;;;;;;;5050984;28;20232;-76
2023/12/03 14:10:29;;;;;;;47.15;41.30;;;;;;;;;;5051428;28;20204;-81
2023/12/03 14:12:56;;;;;;;47.35;42.25;;;;;;;;;;5052708;28;20299;-79
2023/12/03 14:15:23;;;;;;;38.58;34.58;;;;;;;;;;5051628;28;20192;-76
2023/12/03 14:17:50;;;;;;;35.08;31.48;;;;;;;;;;5051268;28;20224;-76